Time;durP1;ratioP1;P1;durP2;ratioP2;P2;SDS_P1;SDS_P2;PMS_P1;PMS_P2;Temp;Humidity;BMP_temperature;BMP_pressure;BME280_temperature;BME280_humidity;BME280_pressure;Samples;Min_cycle;Max_cycle;Signal;HPM_P1;HPM_P2
2022/09/11 00:01:22;;;;;;;2.13;1.33;;;;;;;17.57;100.00;100241.22;5109747;28;20605;-70
2022/09/11 00:03:48;;;;;;;3.28;1.50;;;;;;;17.53;100.00;100228.91;5110148;28;20028;-69
2022/09/11 00:06:16;;;;;;;9.57;1.90;;;;;;;17.58;100.00;100232.19;5091963;28;20031;-69
2022/09/11 00:08:42;;;;;;;3.58;1.40;;;;;;;17.57;100.00;100234.97;5110275;28;20027;-69
2022/09/11 00:11:16;;;;;;;8.82;1.48;;;;;;;17.61;100.00;100237.38;5098421;28;20103;-69
2022/09/11 00:13:43;;;;;;;8.88;1.60;;;;;;;17.59;100.00;100228.56;5089652;28;20031;-68
2022/09/11 00:16:21;;;;;;;4.45;1.38;;;;;;;17.57;100.00;100235.84;5089808;28;20048;-68
2022/09/11 00:18:47;;;;;;;6.82;1.90;;;;;;;17.60;100.00;100232.09;5089775;28;20023;-68
2022/09/11 00:21:13;;;;;;;8.73;1.20;;;;;;;17.57;100.00;100233.16;5089664;28;20211;-69
2022/09/11 00:23:38;;;;;;;2.42;1.30;;;;;;;17.56;100.00;100223.34;5086931;28;20059;-69
2022/09/11 00:26:05;;;;;;;2.33;1.38;;;;;;;17.56;100.00;100228.72;5085888;28;20181;-69
2022/09/11 00:28:30;;;;;;;12.52;2.03;;;;;;;17.56;100.00;100234.09;5094104;28;20027;-69
2022/09/11 00:31:11;;;;;;;3.13;1.30;;;;;;;17.57;100.00;100234.97;5087670;28;20027;-69
2022/09/11 00:33:37;;;;;;;5.05;1.52;;;;;;;17.62;100.00;100238.28;5088143;28;20591;-69
2022/09/11 00:36:09;;;;;;;4.72;1.65;;;;;;;17.64;100.00;100237.25;5106421;28;20030;-69
2022/09/11 00:38:36;;;;;;;5.28;1.42;;;;;;;17.65;100.00;100230.00;5108314;28;20470;-69
2022/09/11 00:41:06;;;;;;;2.60;1.42;;;;;;;17.65;100.00;100227.31;5099335;28;20028;-69
2022/09/11 00:43:58;;;;;;;2.33;1.10;;;;;;;17.67;100.00;100231.69;5089482;28;20418;-69
2022/09/11 00:46:48;;;;;;;3.20;1.20;;;;;;;17.66;100.00;100234.47;5089074;28;20016;-69
2022/09/11 00:49:24;;;;;;;4.43;1.70;;;;;;;17.65;100.00;100236.28;5088374;28;20043;-69
2022/09/11 00:51:58;;;;;;;3.38;1.20;;;;;;;17.65;100.00;100238.97;5089299;28;20407;-69
2022/09/11 00:54:28;;;;;;;6.30;1.30;;;;;;;17.66;100.00;100237.16;5089309;28;20436;-69
2022/09/11 00:56:57;;;;;;;2.33;1.30;;;;;;;17.75;100.00;100233.91;5095686;28;20035;-68
2022/09/11 00:59:25;;;;;;;4.90;1.20;;;;;;;17.77;100.00;100234.69;5091531;28;20085;-68
2022/09/11 01:01:52;;;;;;;3.42;1.38;;;;;;;17.69;100.00;100229.75;5088429;28;20067;-68
2022/09/11 01:04:20;;;;;;;2.88;1.23;;;;;;;17.77;100.00;100238.25;5089047;28;20058;-68
2022/09/11 01:06:46;;;;;;;2.30;1.30;;;;;;;17.81;100.00;100238.91;5089595;28;20043;-68
2022/09/11 01:09:12;;;;;;;4.20;1.85;;;;;;;17.79;100.00;100235.47;5106742;28;20020;-68
2022/09/11 01:11:50;;;;;;;2.28;1.58;;;;;;;17.78;100.00;100242.66;5109102;28;20024;-68
2022/09/11 01:14:22;;;;;;;3.28;1.60;;;;;;;17.76;100.00;100241.03;5088950;28;20024;-68
2022/09/11 01:16:55;;;;;;;3.13;1.08;;;;;;;17.77;100.00;100232.88;5090534;28;20024;-68
2022/09/11 01:19:54;;;;;;;5.37;2.17;;;;;;;17.80;100.00;100227.31;5105083;28;20024;-68
2022/09/11 01:22:45;;;;;;;3.20;1.40;;;;;;;17.81;100.00;100238.91;5089107;28;20026;-68
2022/09/11 01:25:17;;;;;;;4.22;1.38;;;;;;;17.83;100.00;100232.50;5088981;28;20055;-68
2022/09/11 01:27:55;;;;;;;1.98;1.48;;;;;;;17.85;100.00;100237.78;5088570;28;20028;-68
2022/09/11 01:30:25;;;;;;;3.17;1.40;;;;;;;17.85;100.00;100238.69;5088961;28;20028;-68
2022/09/11 01:33:07;;;;;;;5.43;3.03;;;;;;;17.84;100.00;100238.78;5088695;28;20185;-68
2022/09/11 01:35:48;;;;;;;2.53;1.40;;;;;;;17.82;100.00;100236.16;5088795;28;20116;-68
2022/09/11 01:38:33;;;;;;;2.38;1.30;;;;;;;17.79;100.00;100241.69;5088525;28;20020;-68
2022/09/11 01:41:06;;;;;;;5.07;1.60;;;;;;;17.80;100.00;100245.28;5099051;28;20027;-68
2022/09/11 01:43:37;;;;;;;3.08;1.52;;;;;;;17.79;100.00;100241.69;5109072;28;20034;-68
2022/09/11 01:46:06;;;;;;;2.33;1.40;;;;;;;17.80;100.00;100237.19;5109100;28;20048;-68
2022/09/11 01:48:45;;;;;;;6.05;1.88;;;;;;;17.80;100.00;100235.38;5109004;28;20118;-68
2022/09/11 01:51:24;;;;;;;3.08;1.38;;;;;;;17.76;100.00;100235.66;5090677;28;20611;-68
2022/09/11 01:53:52;;;;;;;4.75;1.45;;;;;;;17.82;100.00;100236.16;5109096;28;20031;-68
2022/09/11 01:56:25;;;;;;;2.35;1.30;;;;;;;17.83;100.00;100243.28;5107996;28;20024;-68
2022/09/11 01:58:57;;;;;;;5.45;1.58;;;;;;;17.82;100.00;100246.06;5108412;28;20023;-69
2022/09/11 02:01:28;;;;;;;4.75;1.90;;;;;;;17.83;100.00;100237.00;5110804;28;20039;-68
2022/09/11 02:04:03;;;;;;;3.60;2.15;;;;;;;17.84;100.00;100245.00;5111255;28;20031;-68
2022/09/11 02:06:47;;;;;;;2.58;1.23;;;;;;;17.86;100.00;100248.47;5110872;28;20016;-68
2022/09/11 02:09:17;;;;;;;6.53;1.70;;;;;;;17.87;100.00;100249.34;5111397;28;20027;-69
2022/09/11 02:11:46;;;;;;;3.13;1.30;;;;;;;17.79;100.00;100239.00;5095204;28;20035;-69
2022/09/11 02:14:35;;;;;;;3.65;1.95;;;;;;;17.85;100.00;100246.75;5073821;28;20036;-69
2022/09/11 02:17:07;;;;;;;3.30;1.65;;;;;;;17.83;100.00;100251.34;5091980;28;20451;-68
2022/09/11 02:19:33;;;;;;;2.83;1.40;;;;;;;17.84;100.00;100239.59;5092251;28;20051;-69
2022/09/11 02:21:58;;;;;;;3.10;1.58;;;;;;;17.86;100.00;100236.81;5091725;28;20519;-68
2022/09/11 02:24:26;;;;;;;2.50;1.52;;;;;;;17.85;100.00;100238.69;5091628;28;20564;-68
2022/09/11 02:27:01;;;;;;;2.10;1.45;;;;;;;17.80;100.00;100230.00;5091749;28;20020;-69
2022/09/11 02:29:27;;;;;;;10.82;1.98;;;;;;;17.85;100.00;100233.28;5098482;28;20420;-68
2022/09/11 02:31:53;;;;;;;2.92;1.55;;;;;;;17.90;100.00;100239.28;5112095;28;20020;-69
2022/09/11 02:34:27;;;;;;;3.00;1.77;;;;;;;17.93;100.00;100231.00;5112073;28;20394;-68
2022/09/11 02:37:11;;;;;;;3.17;1.73;;;;;;;17.96;100.00;100238.03;5093781;28;20030;-69
2022/09/11 02:39:59;;;;;;;5.55;1.50;;;;;;;17.95;100.00;100237.19;5112074;28;20836;-69
2022/09/11 02:43:00;;;;;;;12.48;1.90;;;;;;;17.96;100.00;100246.09;5091508;28;20088;-69
2022/09/11 02:46:07;;;;;;;6.82;2.17;;;;;;;17.96;100.00;100246.97;5091664;28;20024;-68
2022/09/11 02:49:11;;;;;;;4.13;1.55;;;;;;;17.98;100.00;100239.69;5091450;28;20026;-68
2022/09/11 02:51:46;;;;;;;2.90;1.33;;;;;;;17.96;100.00;100246.97;5008731;28;20034;-67
2022/09/11 02:54:23;;;;;;;2.70;1.55;;;;;;;17.97;100.00;100256.78;5008854;28;20042;-67
2022/09/11 02:56:55;;;;;;;3.47;1.80;;;;;;;17.96;100.00;100255.03;5065494;28;20028;-67
2022/09/11 02:59:29;;;;;;;4.22;1.58;;;;;;;17.96;100.00;100255.03;5111580;28;20394;-67
2022/09/11 03:01:58;;;;;;;;;;;;;;;17.97;100.00;100250.53;5111506;28;20058;-67
2022/09/11 03:04:23;;;;;;;4.88;1.98;;;;;;;17.86;100.00;100232.31;5108253;28;20060;-67
2022/09/11 03:06:50;;;;;;;3.08;1.70;;;;;;;17.94;100.00;100240.81;5111567;28;20024;-67
2022/09/11 03:09:17;;;;;;;6.00;1.80;;;;;;;17.94;100.00;100251.56;5111332;28;20028;-67
2022/09/11 03:11:43;;;;;;;2.72;1.40;;;;;;;17.93;100.00;100249.84;5110387;28;20356;-67
2022/09/11 03:14:09;;;;;;;3.35;2.15;;;;;;;17.94;100.00;100240.81;5092634;28;20043;-67
2022/09/11 03:16:35;;;;;;;4.25;2.25;;;;;;;17.94;100.00;100240.81;5089127;28;20153;-67
2022/09/11 03:19:02;;;;;;;3.47;1.60;;;;;;;17.94;100.00;100245.34;5111302;28;20135;-67
2022/09/11 03:21:28;;;;;;;4.10;1.75;;;;;;;17.92;100.00;100247.25;5111097;28;20058;-67
2022/09/11 03:23:53;;;;;;;4.25;1.92;;;;;;;17.89;100.00;100248.28;5092518;28;20059;-67
2022/09/11 03:26:19;;;;;;;6.95;1.83;;;;;;;17.87;100.00;100252.91;5111235;28;20479;-67
2022/09/11 03:28:45;;;;;;;2.72;1.70;;;;;;;17.85;100.00;100254.81;5110783;28;20066;-67
2022/09/11 03:31:11;;;;;;;8.90;1.85;;;;;;;17.84;100.00;100255.75;5110916;28;21994;-68
2022/09/11 03:33:36;;;;;;;11.52;2.58;;;;;;;17.88;100.00;100249.25;5092370;28;20038;-67
2022/09/11 03:36:02;;;;;;;5.07;1.80;;;;;;;17.81;100.00;100245.19;5111165;28;20028;-67
2022/09/11 03:38:28;;;;;;;4.43;1.67;;;;;;;17.89;100.00;100250.97;5110852;28;20081;-68
2022/09/11 03:40:53;;;;;;;6.22;1.60;;;;;;;17.89;100.00;100253.66;5110763;28;20557;-68
2022/09/11 03:43:20;;;;;;;6.70;1.90;;;;;;;17.86;100.00;100261.94;5110327;28;20023;-67
2022/09/11 03:45:50;;;;;;;4.85;1.90;;;;;;;17.90;100.00;100263.50;5110690;28;20032;-67
2022/09/11 03:48:17;;;;;;;3.55;1.70;;;;;;;17.91;100.00;100264.34;5110486;28;20024;-67
2022/09/11 03:50:44;;;;;;;5.90;2.13;;;;;;;17.91;100.00;100257.16;5110623;28;20031;-67
2022/09/11 03:53:10;;;;;;;6.32;2.28;;;;;;;17.90;100.00;100271.56;5110726;28;20057;-67
2022/09/11 03:55:36;;;;;;;4.43;1.95;;;;;;;17.85;100.00;100254.81;5110805;28;20393;-67
2022/09/11 03:58:02;;;;;;;7.45;1.80;;;;;;;17.90;100.00;100266.19;5110269;28;20027;-67
2022/09/11 04:00:28;;;;;;;3.53;1.70;;;;;;;17.91;100.00;100261.66;5110734;28;20035;-67
2022/09/11 04:02:57;;;;;;;6.32;2.08;;;;;;;17.92;100.00;100263.41;5110276;28;20494;-67
2022/09/11 04:05:25;;;;;;;6.15;1.60;;;;;;;17.94;100.00;100262.34;5110425;28;20034;-67
2022/09/11 04:07:52;;;;;;;4.50;1.80;;;;;;;17.94;100.00;100275.78;5110420;28;20034;-67
2022/09/11 04:10:19;;;;;;;2.58;1.63;;;;;;;17.95;100.00;100258.72;5105718;28;20030;-67
2022/09/11 04:12:45;;;;;;;2.97;1.65;;;;;;;17.97;100.00;100278.31;5089800;28;20039;-67
2022/09/11 04:15:11;;;;;;;6.28;2.45;;;;;;;17.93;100.00;100263.31;5090083;28;20058;-67
2022/09/11 04:17:36;;;;;;;4.30;1.80;;;;;;;17.98;100.00;100274.69;5089910;28;20020;-67
2022/09/11 04:20:03;;;;;;;3.25;2.00;;;;;;;18.01;100.00;100269.09;5071247;28;20031;-67
2022/09/11 04:22:29;;;;;;;3.45;1.73;;;;;;;17.98;100.00;100277.38;5089365;28;20475;-67
2022/09/11 04:24:54;;;;;;;7.55;1.85;;;;;;;18.02;100.00;100276.22;5092491;28;20024;-67
2022/09/11 04:27:22;;;;;;;3.13;1.80;;;;;;;17.93;100.00;100265.13;5109974;28;20024;-67
2022/09/11 04:29:48;;;;;;;6.53;3.00;;;;;;;18.02;100.00;100281.59;5091627;28;20023;-67
2022/09/11 04:32:13;;;;;;;5.93;2.13;;;;;;;18.03;100.00;100282.47;5109929;28;20077;-67
2022/09/11 04:34:39;;;;;;;7.07;2.10;;;;;;;17.99;100.00;100276.41;5110016;28;20046;-67
2022/09/11 04:37:05;;;;;;;2.88;1.58;;;;;;;18.04;100.00;100295.84;5109762;28;20026;-67
2022/09/11 04:39:31;;;;;;;4.00;1.60;;;;;;;17.99;100.00;100289.00;5109552;28;20035;-67
2022/09/11 04:41:56;;;;;;;15.57;3.08;;;;;;;18.00;100.00;100298.81;5091774;28;20442;-66
2022/09/11 04:44:23;;;;;;;4.38;2.10;;;;;;;17.98;100.00;100298.91;5089348;28;20051;-67
2022/09/11 04:46:49;;;;;;;6.85;2.38;;;;;;;18.00;100.00;100294.31;5089282;28;20035;-67
2022/09/11 04:49:14;;;;;;;3.72;1.80;;;;;;;17.99;100.00;100292.53;5094646;28;20024;-67
2022/09/11 04:51:40;;;;;;;5.13;2.22;;;;;;;17.96;100.00;100290.03;5108766;28;20501;-67
2022/09/11 04:54:06;;;;;;;6.90;2.28;;;;;;;17.98;100.00;100290.81;5108704;28;20028;-67
2022/09/11 04:56:36;;;;;;;4.55;2.22;;;;;;;18.03;100.00;100302.19;5108351;28;20024;-67
2022/09/11 04:59:08;;;;;;;7.65;2.85;;;;;;;18.01;100.00;100300.53;5108460;28;20110;-67
2022/09/11 05:01:34;;;;;;;5.80;2.95;;;;;;;18.02;100.00;100302.28;5086786;28;20599;-67
2022/09/11 05:04:00;;;;;;;7.93;2.63;;;;;;;18.00;100.00;100306.88;5087182;28;20399;-67
2022/09/11 05:06:29;;;;;;;4.53;2.63;;;;;;;17.97;100.00;100310.59;5086135;28;20024;-67
2022/09/11 05:08:55;;;;;;;3.45;2.13;;;;;;;17.98;100.00;100309.66;5088898;28;20039;-67
2022/09/11 05:11:20;;;;;;;3.47;2.22;;;;;;;18.01;100.00;100312.19;5076308;28;20070;-67
2022/09/11 05:13:46;;;;;;;6.85;3.10;;;;;;;18.01;100.00;100309.47;5067469;28;20434;-67
2022/09/11 05:16:14;;;;;;;5.93;3.00;;;;;;;18.00;100.00;100310.44;5068892;28;20077;-67
2022/09/11 05:18:42;;;;;;;7.40;3.42;;;;;;;18.03;100.00;100318.34;5069106;28;20054;-67
2022/09/11 05:21:13;;;;;;;6.35;3.38;;;;;;;17.98;100.00;100312.34;5068967;28;20568;-67
2022/09/11 05:23:38;;;;;;;6.38;3.95;;;;;;;18.00;100.00;100323.91;5068494;28;20123;-67
2022/09/11 05:26:05;;;;;;;4.93;3.15;;;;;;;18.05;100.00;100329.91;5085670;28;20106;-67
2022/09/11 05:28:31;;;;;;;7.55;3.75;;;;;;;18.08;100.00;100324.34;5088071;28;20496;-67
2022/09/11 05:30:58;;;;;;;7.50;4.07;;;;;;;18.01;100.00;100317.56;5087747;28;20391;-67
2022/09/11 05:33:25;;;;;;;13.45;4.30;;;;;;;18.10;100.00;100332.31;5088539;28;20081;-67
2022/09/11 05:35:54;;;;;;;6.95;4.15;;;;;;;18.11;100.00;100331.34;5091499;28;20030;-66
2022/09/11 05:38:21;;;;;;;7.55;3.85;;;;;;;18.14;100.00;100334.72;5091990;28;20250;-67
2022/09/11 05:40:50;;;;;;;9.68;5.65;;;;;;;18.13;100.00;100333.00;5092715;28;20058;-67
2022/09/11 05:43:18;;;;;;;6.68;4.20;;;;;;;18.12;100.00;100338.50;5092626;28;20070;-67
2022/09/11 05:45:44;;;;;;;11.27;4.50;;;;;;;18.20;100.00;100342.44;5092329;28;20063;-67
2022/09/11 05:48:10;;;;;;;7.38;4.65;;;;;;;18.13;100.00;100327.63;5092565;28;20024;-68
2022/09/11 05:50:37;;;;;;;9.30;4.72;;;;;;;18.21;100.00;100346.88;5093048;28;20034;-67
2022/09/11 05:53:04;;;;;;;8.48;4.47;;;;;;;18.18;100.00;100347.06;5092381;28;20382;-67
2022/09/11 05:55:34;;;;;;;9.70;4.93;;;;;;;18.25;100.00;100364.59;5092214;28;20103;-67
2022/09/11 05:58:00;;;;;;;11.43;5.10;;;;;;;18.24;100.00;100373.63;5092298;28;20024;-67
2022/09/11 06:00:26;;;;;;;8.65;5.15;;;;;;;18.25;100.00;100367.28;5092239;28;20055;-67
2022/09/11 06:02:57;;;;;;;7.97;4.55;;;;;;;18.26;100.00;100371.72;5109874;28;20518;-66
2022/09/11 06:05:22;;;;;;;9.00;4.82;;;;;;;18.27;100.00;100381.53;5094069;28;20036;-67
2022/09/11 06:07:49;;;;;;;12.93;4.65;;;;;;;18.28;100.00;100385.97;5112889;28;20046;-66
2022/09/11 06:10:14;;;;;;;8.68;5.05;;;;;;;18.32;100.00;100382.13;5108292;28;20028;-67
2022/09/11 06:12:40;;;;;;;7.55;4.35;;;;;;;18.36;100.00;100391.78;5092113;28;20028;-66
2022/09/11 06:15:06;;;;;;;7.30;4.53;;;;;;;18.37;100.00;100393.50;5091870;28;20101;-67
2022/09/11 06:17:31;;;;;;;10.45;4.63;;;;;;;18.40;100.00;100389.81;5110763;28;20075;-66
2022/09/11 06:19:57;;;;;;;8.38;4.95;;;;;;;18.41;100.00;100394.22;5112303;28;20035;-67
2022/09/11 06:22:22;;;;;;;8.43;4.53;;;;;;;18.37;100.00;100389.94;5112125;28;20027;-67
2022/09/11 06:24:48;;;;;;;7.07;4.32;;;;;;;18.44;100.00;100395.84;5112200;28;20111;-66
2022/09/11 06:27:14;;;;;;;8.82;4.78;;;;;;;18.46;100.00;100384.06;5094000;28;20474;-67
2022/09/11 06:29:40;;;;;;;6.82;4.18;;;;;;;18.59;100.00;100392.28;5111911;28;20032;-67
2022/09/11 06:32:06;;;;;;;8.27;4.45;;;;;;;18.56;100.00;100379.88;5111715;28;20450;-67
2022/09/11 06:34:32;;;;;;;10.75;4.75;;;;;;;18.66;100.00;100390.94;5112009;28;20063;-67
2022/09/11 06:36:57;;;;;;;7.10;4.15;;;;;;;18.69;100.00;100396.16;5112111;28;20045;-67
2022/09/11 06:39:22;;;;;;;6.72;4.50;;;;;;;18.64;100.00;100379.38;5111992;28;20111;-66
2022/09/11 06:41:49;;;;;;;8.57;4.65;;;;;;;18.75;100.00;100395.78;5094488;28;20050;-67
2022/09/11 06:44:14;;;;;;;7.35;4.60;;;;;;;18.83;100.00;100393.53;5091108;28;20035;-67
2022/09/11 06:46:41;;;;;;;8.65;4.50;;;;;;;18.90;100.00;100405.63;5102426;28;20085;-66
2022/09/11 06:49:06;;;;;;;12.82;4.45;;;;;;;18.93;100.00;100403.63;5111726;28;20031;-66
2022/09/11 06:51:32;;;;;;;7.15;4.40;;;;;;;19.00;100.00;100401.44;5111588;28;20433;-66
2022/09/11 06:54:01;;;;;;;10.20;4.50;;;;;;;18.95;100.00;100393.63;5111554;28;20108;-66
2022/09/11 06:56:29;;;;;;;9.98;5.03;;;;;;;19.04;100.00;100397.59;5111701;28;20053;-66
2022/09/11 06:58:54;;;;;;;9.18;4.65;;;;;;;19.09;100.00;100400.88;5110851;28;20125;-66
2022/09/11 07:01:21;;;;;;;7.75;3.95;;;;;;;19.13;100.00;100397.03;5092509;28;20422;-66
2022/09/11 07:03:49;;;;;;;9.57;4.05;;;;;;;19.15;100.00;100390.59;5093870;28;20035;-66
2022/09/11 07:06:17;;;;;;;10.45;4.18;;;;;;;19.25;100.00;100383.66;5072910;28;20034;-67
2022/09/11 07:08:43;;;;;;;9.27;4.50;;;;;;;19.29;100.00;100392.47;5091470;28;20022;-66
2022/09/11 07:11:12;;;;;;;8.35;4.32;;;;;;;19.30;99.97;100394.19;5102118;28;20031;-66
2022/09/11 07:13:38;;;;;;;8.93;5.40;;;;;;;19.35;99.42;100398.34;5111332;28;20114;-66
2022/09/11 07:16:06;;;;;;;8.35;4.28;;;;;;;19.37;98.81;100400.94;5092474;28;20110;-66
2022/09/11 07:18:38;;;;;;;13.07;4.47;;;;;;;19.37;98.08;100393.69;5111234;28;20436;-66
2022/09/11 07:21:10;;;;;;;7.43;4.07;;;;;;;19.40;98.24;100401.63;5110593;28;20385;-66
2022/09/11 07:23:35;;;;;;;10.85;5.07;;;;;;;19.41;98.29;100397.06;5111390;28;20535;-66
2022/09/11 07:26:03;;;;;;;7.47;4.05;;;;;;;19.51;98.11;100398.25;5111252;28;20044;-66
2022/09/11 07:28:29;;;;;;;9.02;4.45;;;;;;;19.56;97.85;100401.50;5111244;28;20104;-66
2022/09/11 07:31:02;;;;;;;7.15;4.30;;;;;;;19.57;96.78;100397.88;5111102;28;20061;-66
2022/09/11 07:33:27;;;;;;;7.28;3.83;;;;;;;19.76;97.25;100405.66;5092852;28;20411;-66
2022/09/11 07:35:54;;;;;;;8.45;3.53;;;;;;;19.92;95.16;100404.56;5110781;28;20019;-66
2022/09/11 07:38:19;;;;;;;8.20;4.55;;;;;;;20.11;94.66;100407.81;5108923;28;20481;-66
2022/09/11 07:40:45;;;;;;;7.70;4.43;;;;;;;20.26;93.45;100417.63;5108720;28;20030;-66
2022/09/11 07:43:12;;;;;;;7.10;3.92;;;;;;;20.44;91.95;100413.75;5108661;28;20035;-66
2022/09/11 07:45:37;;;;;;;8.50;4.60;;;;;;;20.47;90.36;100416.22;5111029;28;20050;-66
2022/09/11 07:48:05;;;;;;;6.47;3.88;;;;;;;20.55;90.08;100424.69;5110099;28;20030;-67
2022/09/11 07:50:32;;;;;;;6.97;4.53;;;;;;;20.57;88.85;100428.16;5090686;28;20027;-66
2022/09/11 07:52:57;;;;;;;7.72;3.85;;;;;;;20.62;89.40;100434.13;5110714;28;20047;-66
2022/09/11 07:55:23;;;;;;;6.40;4.40;;;;;;;20.70;89.80;100430.91;5092517;28;20062;-66
2022/09/11 07:57:49;;;;;;;10.88;4.78;;;;;;;20.69;90.01;100435.44;5109756;28;20551;-66
2022/09/11 08:00:15;;;;;;;6.38;4.00;;;;;;;20.68;87.98;100436.41;5110638;28;20050;-66
2022/09/11 08:02:41;;;;;;;6.80;4.57;;;;;;;20.65;87.56;100441.16;5111964;28;20067;-66
2022/09/11 08:05:07;;;;;;;6.82;4.10;;;;;;;20.65;88.35;100439.31;5110993;28;20498;-66
2022/09/11 08:07:32;;;;;;;10.57;4.40;;;;;;;20.60;88.11;100441.47;5110483;28;20107;-66
2022/09/11 08:09:58;;;;;;;6.07;3.88;;;;;;;20.59;87.23;100434.31;5108813;28;20032;-66
2022/09/11 08:12:23;;;;;;;10.23;4.82;;;;;;;20.68;87.86;100433.72;5090252;28;20378;-66
2022/09/11 08:14:48;;;;;;;6.25;3.67;;;;;;;20.83;86.87;100438.09;5090573;28;20070;-66
2022/09/11 08:17:15;;;;;;;6.70;3.70;;;;;;;20.93;87.03;100428.38;5089825;28;20028;-66
2022/09/11 08:19:40;;;;;;;7.50;3.75;;;;;;;21.10;85.91;100434.50;5097095;28;20106;-66
2022/09/11 08:22:07;;;;;;;7.45;4.03;;;;;;;21.22;85.31;100439.06;5109447;28;20095;-66
2022/09/11 08:24:33;;;;;;;12.07;5.05;;;;;;;21.31;84.96;100438.41;5109532;28;20050;-66
2022/09/11 08:26:59;;;;;;;7.65;4.22;;;;;;;21.45;84.20;100435.63;5109219;28;20483;-65
2022/09/11 08:29:24;;;;;;;6.78;3.88;;;;;;;21.37;82.07;100444.25;5109993;28;20500;-66
2022/09/11 08:31:50;;;;;;;8.93;4.28;;;;;;;21.39;82.76;100444.16;5109115;28;20053;-66
2022/09/11 08:34:20;;;;;;;7.35;3.53;;;;;;;21.45;82.95;100446.44;5110172;28;20156;-66
2022/09/11 08:36:46;;;;;;;7.10;4.38;;;;;;;21.54;82.76;100445.78;5110384;28;20124;-66
2022/09/11 08:39:11;;;;;;;5.45;3.60;;;;;;;21.52;81.31;100447.72;5098674;28;20495;-66
2022/09/11 08:41:48;;;;;;;6.38;3.30;;;;;;;21.40;81.62;100418.81;5104984;28;20039;-66
2022/09/11 08:44:31;;;;;;;6.72;3.72;;;;;;;21.48;80.76;100448.94;5110143;28;20027;-66
2022/09/11 08:47:05;;;;;;;6.40;4.22;;;;;;;21.39;80.82;100449.56;5110094;28;20024;-67
2022/09/11 08:49:43;;;;;;;7.80;4.18;;;;;;;21.46;81.38;100464.41;5110196;28;20359;-66
2022/09/11 08:52:12;;;;;;;8.80;4.53;;;;;;;21.51;81.27;100462.25;5091856;28;20102;-67
2022/09/11 08:54:40;;;;;;;7.10;3.72;;;;;;;21.49;80.83;100458.75;5080490;28;20039;-67
2022/09/11 08:57:25;;;;;;;6.93;3.65;;;;;;;21.37;80.39;100460.50;5097571;28;20027;-67
2022/09/11 09:00:19;;;;;;;7.35;3.97;;;;;;;21.26;81.53;100457.69;5109888;28;20027;-67
2022/09/11 09:03:03;;;;;;;7.93;4.20;;;;;;;21.16;82.72;100456.56;5103697;28;20047;-66
2022/09/11 09:06:03;;;;;;;6.80;3.80;;;;;;;21.08;83.29;100458.06;5089215;28;20028;-66
2022/09/11 09:08:49;;;;;;;8.00;4.28;;;;;;;21.06;84.57;100457.31;5091640;28;20543;-66
2022/09/11 09:11:29;;;;;;;6.88;3.97;;;;;;;21.16;83.76;100451.16;5105647;28;20019;-67
2022/09/11 09:14:08;;;;;;;9.60;4.80;;;;;;;21.47;82.82;100453.47;5113310;28;20027;-67
2022/09/11 09:16:52;;;;;;;7.28;3.45;;;;;;;21.77;80.99;100453.16;5095040;28;20034;-67
2022/09/11 09:19:23;;;;;;;8.25;3.70;;;;;;;22.01;80.57;100456.81;5114492;28;20050;-67
2022/09/11 09:21:59;;;;;;;7.07;4.07;;;;;;;22.23;78.80;100458.81;5095091;28;20027;-66
2022/09/11 09:24:28;;;;;;;7.25;4.00;;;;;;;22.13;78.05;100455.91;5095928;28;20031;-66
2022/09/11 09:26:55;;;;;;;6.78;3.40;;;;;;;22.09;77.97;100459.84;5095835;28;20043;-68
2022/09/11 09:29:23;;;;;;;8.85;3.63;;;;;;;22.08;77.25;100458.97;5113504;28;20062;-65
2022/09/11 09:31:52;;;;;;;7.13;3.63;;;;;;;21.99;77.16;100465.03;5112225;28;20027;-66
2022/09/11 09:34:20;;;;;;;8.10;4.00;;;;;;;21.96;78.36;100459.84;5112556;28;20515;-66
2022/09/11 09:36:58;;;;;;;6.60;3.72;;;;;;;21.80;78.34;100463.78;5114046;28;20190;-66
2022/09/11 09:39:24;;;;;;;6.18;3.47;;;;;;;21.76;79.03;100462.25;5111387;28;20122;-66
2022/09/11 09:42:20;;;;;;;8.00;3.35;;;;;;;21.88;77.98;100458.66;5110928;28;20058;-67
2022/09/11 09:45:17;;;;;;;8.05;3.58;;;;;;;22.06;77.16;100454.63;5106866;28;20494;-66
2022/09/11 09:47:44;;;;;;;9.40;4.00;;;;;;;22.25;77.27;100468.59;5113274;28;20027;-67
2022/09/11 09:50:24;;;;;;;8.30;4.10;;;;;;;22.89;75.35;100457.41;5112761;28;20031;-67
2022/09/11 09:52:52;;;;;;;10.23;3.72;;;;;;;24.10;71.96;100455.97;5113088;28;20125;-67
2022/09/11 09:55:20;;;;;;;6.82;3.80;;;;;;;24.71;66.47;100449.94;5112878;28;20426;-66
2022/09/11 09:57:46;;;;;;;7.10;3.38;;;;;;;25.10;63.92;100452.00;5112634;28;20490;-66
2022/09/11 10:00:17;;;;;;;5.32;3.47;;;;;;;24.97;63.97;100454.03;5112634;28;20098;-66
2022/09/11 10:02:51;;;;;;;5.50;3.03;;;;;;;24.60;63.15;100458.09;5112101;28;20039;-66
2022/09/11 10:05:23;;;;;;;6.50;3.65;;;;;;;24.18;65.42;100451.63;5113000;28;20103;-66
2022/09/11 10:08:19;;;;;;;6.10;3.42;;;;;;;23.84;66.12;100444.44;5112566;28;20054;-66
2022/09/11 10:10:56;;;;;;;5.13;3.08;;;;;;;23.50;67.20;100447.25;5098043;28;20044;-66
2022/09/11 10:13:27;;;;;;;5.68;3.10;;;;;;;23.42;67.34;100446.00;5112267;28;20020;-66
2022/09/11 10:15:55;;;;;;;5.07;2.63;;;;;;;24.09;67.78;100446.94;5112302;28;20111;-66
2022/09/11 10:18:33;;;;;;;8.43;3.45;;;;;;;24.81;63.27;100434.53;5112299;28;20498;-66
2022/09/11 10:21:10;;;;;;;5.05;2.60;;;;;;;24.84;60.68;100434.31;5111739;28;20031;-66
2022/09/11 10:23:57;;;;;;;6.47;2.85;;;;;;;24.54;63.20;100431.41;5112060;28;20024;-66
2022/09/11 10:26:44;;;;;;;5.47;2.92;;;;;;;24.46;64.92;100423.88;5112377;28;20390;-66
2022/09/11 10:29:19;;;;;;;6.53;3.67;;;;;;;24.38;65.13;100422.81;5111688;28;20031;-65
2022/09/11 10:31:50;;;;;;;6.82;2.80;;;;;;;24.12;64.53;100424.06;5108853;28;20535;-65
2022/09/11 10:34:18;;;;;;;6.07;2.92;;;;;;;24.08;65.35;100425.31;5111981;28;20039;-65
2022/09/11 10:37:02;;;;;;;4.78;2.92;;;;;;;24.13;64.26;100417.66;5112191;28;20544;-66
2022/09/11 10:39:31;;;;;;;4.57;2.88;;;;;;;25.24;64.40;100416.28;5111916;28;20023;-66
2022/09/11 10:42:02;;;;;;;5.75;2.90;;;;;;;26.27;60.87;100412.53;5111524;28;20028;-65
2022/09/11 10:44:28;;;;;;;3.80;2.25;;;;;;;27.07;55.54;100420.41;5111280;28;20518;-65
2022/09/11 10:47:13;;;;;;;4.47;2.28;;;;;;;27.69;53.68;100416.28;5110080;28;20127;-65
2022/09/11 10:49:39;;;;;;;3.85;2.53;;;;;;;28.26;51.19;100408.72;5109870;28;20114;-66
2022/09/11 10:52:07;;;;;;;6.47;2.67;;;;;;;28.61;51.41;100412.56;5109511;28;20027;-65
2022/09/11 10:54:53;;;;;;;5.38;2.47;;;;;;;28.99;49.49;100410.38;5095961;28;20032;-65
2022/09/11 10:57:40;;;;;;;3.45;2.00;;;;;;;28.72;50.76;100417.78;5081078;28;20024;-72
2022/09/11 11:00:29;;;;;;;5.13;2.15;;;;;;;28.92;48.79;100416.63;5107470;28;20024;-73
2022/09/11 11:03:25;;;;;;;3.85;2.10;;;;;;;29.19;49.03;100411.94;5044097;28;20055;-73
2022/09/11 11:06:18;;;;;;;3.72;2.15;;;;;;;29.30;45.89;100419.94;5051062;28;20029;-73
2022/09/11 11:09:18;;;;;;;3.45;1.83;;;;;;;29.19;46.94;100416.59;5049066;28;20021;-63
2022/09/11 11:11:58;;;;;;;2.90;2.00;;;;;;;29.75;45.10;100418.91;5065018;28;20032;-63
2022/09/11 11:14:42;;;;;;;4.38;2.35;;;;;;;29.50;48.10;100415.09;5068802;28;20029;-64
2022/09/11 11:17:30;;;;;;;3.25;2.03;;;;;;;28.56;46.94;100425.84;5068852;28;20796;-64
2022/09/11 11:19:55;;;;;;;4.28;1.90;;;;;;;27.85;48.97;100417.38;5067210;28;20040;-64
2022/09/11 11:22:28;;;;;;;4.95;1.90;;;;;;;28.17;49.57;100420.56;5070494;28;20540;-63
2022/09/11 11:25:03;;;;;;;2.38;1.58;;;;;;;28.81;49.12;100416.88;5070547;28;20029;-63
2022/09/11 11:27:38;;;;;;;3.08;1.70;;;;;;;28.79;46.80;100418.91;5070131;28;20368;-63
2022/09/11 11:30:22;;;;;;;10.32;2.20;;;;;;;28.55;47.55;100411.28;5070216;28;20020;-63
2022/09/11 11:33:06;;;;;;;4.63;2.05;;;;;;;28.34;47.14;100403.34;5065898;28;20099;-63
2022/09/11 11:35:51;;;;;;;2.28;1.63;;;;;;;28.85;45.71;100407.31;5069257;28;20036;-64
2022/09/11 11:38:27;;;;;;;3.67;1.65;;;;;;;28.87;45.63;100411.63;5068418;28;20035;-63